createdAt,value
2022-08-03T00:01:53.276Z,0.80
2022-08-03T00:04:21.020Z,0.70
2022-08-03T00:07:01.876Z,1.00
2022-08-03T00:09:35.965Z,0.77
2022-08-03T00:12:03.937Z,1.00
2022-08-03T00:14:32.106Z,0.90
2022-08-03T00:16:59.847Z,0.70
2022-08-03T00:19:27.946Z,0.85
2022-08-03T00:21:55.742Z,0.80
2022-08-03T00:24:24.821Z,0.98
2022-08-03T00:26:52.618Z,1.00
2022-08-03T00:29:20.393Z,1.17
2022-08-03T00:31:52.913Z,0.90
2022-08-03T00:34:29.839Z,1.00
2022-08-03T00:37:04.514Z,1.00
2022-08-03T00:39:33.694Z,1.30
2022-08-03T00:42:03.654Z,1.10
2022-08-03T00:44:31.663Z,1.10
2022-08-03T00:46:59.413Z,1.25
2022-08-03T00:49:28.899Z,2.22
2022-08-03T00:51:57.162Z,2.13
2022-08-03T00:54:26.234Z,2.00
2022-08-03T00:56:59.722Z,1.88
2022-08-03T00:59:28.805Z,2.40
2022-08-03T01:01:56.695Z,1.95
2022-08-03T01:04:24.533Z,2.00
2022-08-03T01:07:03.219Z,1.90
2022-08-03T01:09:37.610Z,1.45
2022-08-03T01:12:15.447Z,1.60
2022-08-03T01:14:50.236Z,1.75
2022-08-03T01:17:25.112Z,1.58
2022-08-03T01:19:59.612Z,1.33
2022-08-03T01:22:49.928Z,1.30
2022-08-03T01:25:32.371Z,1.50
2022-08-03T01:28:20.918Z,1.27
2022-08-03T01:30:54.362Z,1.13
2022-08-03T01:33:26.990Z,1.00
2022-08-03T01:35:59.803Z,1.20
2022-08-03T01:38:30.331Z,1.10
2022-08-03T01:40:58.926Z,1.20
2022-08-03T01:44:27.547Z,1.35
2022-08-03T01:46:20.907Z,1.08
2022-08-03T01:48:49.869Z,1.15
2022-08-03T01:51:21.113Z,1.02
2022-08-03T01:53:51.054Z,1.10
2022-08-03T01:56:21.019Z,1.27
2022-08-03T01:58:50.712Z,1.00
2022-08-03T02:01:22.337Z,1.02
2022-08-03T02:03:59.709Z,1.42
2022-08-03T02:07:00.362Z,1.23
2022-08-03T02:09:23.139Z,1.10
2022-08-03T02:11:52.940Z,1.02
2022-08-03T02:14:22.101Z,1.00
2022-08-03T02:16:52.110Z,1.23
2022-08-03T02:19:21.189Z,1.00
2022-08-03T02:21:56.335Z,1.17
2022-08-03T02:24:29.285Z,0.73
2022-08-03T02:26:57.923Z,1.08
2022-08-03T02:29:39.476Z,0.82
2022-08-03T02:32:13.395Z,1.20
2022-08-03T02:34:43.022Z,0.80
2022-08-03T02:37:13.030Z,1.10
2022-08-03T02:39:42.747Z,1.17
2022-08-03T02:42:12.990Z,1.02
2022-08-03T02:44:47.657Z,1.10
2022-08-03T02:47:21.008Z,0.90
2022-08-03T02:49:52.081Z,0.90
2022-08-03T02:52:23.254Z,0.90
2022-08-03T02:54:55.804Z,1.05
2022-08-03T02:57:25.722Z,1.10
2022-08-03T02:59:55.156Z,0.90
2022-08-03T03:02:26.037Z,0.90
2022-08-03T03:05:50.533Z,1.15
2022-08-03T03:07:51.853Z,0.90
2022-08-03T03:10:22.279Z,1.00
2022-08-03T03:12:52.019Z,1.10
2022-08-03T03:15:20.223Z,0.80
2022-08-03T03:17:50.572Z,0.80
2022-08-03T03:20:29.018Z,1.15
2022-08-03T03:23:00.099Z,1.02
2022-08-03T03:25:28.862Z,0.90
2022-08-03T03:27:57.060Z,1.20
2022-08-03T03:30:26.500Z,1.15
2022-08-03T03:32:56.113Z,1.40
2022-08-03T03:35:23.953Z,1.30
2022-08-03T03:37:52.850Z,1.15
2022-08-03T03:40:20.770Z,1.10
2022-08-03T03:42:48.896Z,0.93
2022-08-03T03:45:17.207Z,1.20
2022-08-03T03:47:45.102Z,1.00
2022-08-03T03:50:15.946Z,1.20
2022-08-03T03:52:43.906Z,1.10
2022-08-03T03:55:11.645Z,1.20
2022-08-03T03:57:39.373Z,1.30
2022-08-03T04:00:08.672Z,1.17
2022-08-03T04:02:36.607Z,1.10
2022-08-03T04:05:22.310Z,0.98
2022-08-03T04:08:17.241Z,1.20
2022-08-03T04:11:01.706Z,1.20
2022-08-03T04:13:34.375Z,1.20
2022-08-03T04:16:04.133Z,1.25
2022-08-03T04:18:35.551Z,1.20
2022-08-03T04:21:06.865Z,1.20
2022-08-03T04:23:38.695Z,1.20
2022-08-03T04:26:09.644Z,1.40
2022-08-03T04:28:40.420Z,1.23
2022-08-03T04:31:08.977Z,1.13
2022-08-03T04:33:39.368Z,1.40
2022-08-03T04:36:09.772Z,1.30
2022-08-03T04:38:45.081Z,1.40
2022-08-03T04:41:13.885Z,1.50
2022-08-03T04:43:42.283Z,1.23
2022-08-03T04:46:11.305Z,1.05
2022-08-03T04:48:44.359Z,1.33
2022-08-03T04:51:13.163Z,1.50
2022-08-03T04:53:44.026Z,1.27
2022-08-03T04:56:11.990Z,1.33
2022-08-03T04:58:40.144Z,1.48
2022-08-03T05:01:08.669Z,1.20
2022-08-03T05:03:36.824Z,1.25
2022-08-03T05:06:11.480Z,1.40
2022-08-03T05:08:46.211Z,1.45
2022-08-03T05:11:16.063Z,1.40
2022-08-03T05:13:43.966Z,1.50
2022-08-03T05:16:12.250Z,1.30
2022-08-03T05:18:39.990Z,1.08
2022-08-03T05:21:07.736Z,1.73
2022-08-03T05:23:35.601Z,2.33
2022-08-03T05:26:03.475Z,1.70
2022-08-03T05:28:32.572Z,1.63
2022-08-03T05:31:00.346Z,1.50
2022-08-03T05:33:28.085Z,1.50
2022-08-03T05:36:03.095Z,1.55
2022-08-03T05:38:34.569Z,1.27
2022-08-03T05:41:21.785Z,1.48
2022-08-03T05:43:53.732Z,1.38
2022-08-03T05:46:22.405Z,1.52
2022-08-03T05:48:50.637Z,1.60
2022-08-03T05:51:18.702Z,1.35
2022-08-03T05:53:46.747Z,1.30
2022-08-03T05:56:16.193Z,1.30
2022-08-03T05:58:45.739Z,1.30
2022-08-03T06:01:15.299Z,1.08
2022-08-03T06:03:43.120Z,1.20
2022-08-03T06:06:11.699Z,1.33
2022-08-03T06:08:39.722Z,1.20
2022-08-03T06:11:07.741Z,1.30
2022-08-03T06:13:35.783Z,1.30
2022-08-03T06:16:03.742Z,1.30
2022-08-03T06:18:32.886Z,1.30
2022-08-03T06:21:14.098Z,1.25
2022-08-03T06:23:52.501Z,1.20
2022-08-03T06:26:22.750Z,1.13
2022-08-03T06:28:52.616Z,1.20
2022-08-03T06:31:23.867Z,1.23
2022-08-03T06:34:32.657Z,1.15
2022-08-03T06:36:41.179Z,1.02
2022-08-03T06:39:09.285Z,1.10
2022-08-03T06:41:38.229Z,1.27
2022-08-03T06:44:12.543Z,0.90
2022-08-03T06:46:40.627Z,1.17
2022-08-03T06:49:09.729Z,1.15
2022-08-03T06:52:03.329Z,1.30
2022-08-03T06:54:26.500Z,1.00
2022-08-03T06:56:55.319Z,1.25
2022-08-03T07:00:10.172Z,1.20
2022-08-03T07:02:11.574Z,0.90
2022-08-03T07:04:40.802Z,1.10
2022-08-03T07:07:08.635Z,1.00
2022-08-03T07:09:36.809Z,0.90
2022-08-03T07:12:06.541Z,1.17
2022-08-03T07:14:34.464Z,0.90
2022-08-03T07:17:11.394Z,1.00
2022-08-03T07:19:41.192Z,0.93
2022-08-03T07:22:09.325Z,0.98
2022-08-03T07:24:37.029Z,1.00
2022-08-03T07:27:05.247Z,1.00
2022-08-03T07:29:34.674Z,0.90
2022-08-03T07:32:02.687Z,0.80
2022-08-03T07:34:30.418Z,0.90
2022-08-03T07:36:59.926Z,0.85
2022-08-03T07:39:27.683Z,0.98
2022-08-03T07:41:55.807Z,1.00
2022-08-03T07:44:23.521Z,1.00
2022-08-03T07:46:51.942Z,0.95
2022-08-03T07:49:19.862Z,0.98
2022-08-03T07:52:07.938Z,1.20
2022-08-03T07:54:37.105Z,1.10
2022-08-03T07:57:05.393Z,1.30
2022-08-03T07:59:56.582Z,1.02
2022-08-03T08:02:22.883Z,1.30
2022-08-03T08:04:50.757Z,1.10
2022-08-03T08:07:18.679Z,1.27
2022-08-03T08:09:49.952Z,1.20
2022-08-03T08:12:18.019Z,1.20
2022-08-03T08:14:46.816Z,1.10
2022-08-03T08:17:14.645Z,1.20
2022-08-03T08:19:43.824Z,0.90
2022-08-03T08:22:20.370Z,1.15
2022-08-03T08:24:59.752Z,1.40
2022-08-03T08:28:22.452Z,1.00
2022-08-03T08:30:19.571Z,1.20
2022-08-03T08:32:47.809Z,0.88
2022-08-03T08:35:16.272Z,1.17
2022-08-03T08:37:51.246Z,1.65
2022-08-03T08:40:22.741Z,1.38
2022-08-03T08:42:59.197Z,0.90
2022-08-03T08:45:27.683Z,1.40
2022-08-03T08:48:01.062Z,1.00
2022-08-03T08:50:31.425Z,0.93
2022-08-03T08:53:03.205Z,1.20
2022-08-03T08:55:59.614Z,1.30
2022-08-03T08:58:23.672Z,1.30
2022-08-03T09:00:52.205Z,1.60
2022-08-03T09:03:29.569Z,1.60
2022-08-03T09:05:59.792Z,1.40
2022-08-03T09:08:27.579Z,1.20
2022-08-03T09:10:56.655Z,1.40
2022-08-03T09:13:24.379Z,1.52
2022-08-03T09:16:11.855Z,1.13
2022-08-03T09:18:40.697Z,1.27
2022-08-03T09:21:34.013Z,0.90
2022-08-03T09:24:05.424Z,1.17
2022-08-03T09:29:09.642Z,1.00
2022-08-03T09:31:44.052Z,1.00
2022-08-03T09:34:13.744Z,0.98
2022-08-03T09:36:43.126Z,1.00
2022-08-03T09:39:12.460Z,1.05
2022-08-03T09:41:44.607Z,1.33
2022-08-03T09:44:24.288Z,1.17
2022-08-03T09:46:55.968Z,1.08
2022-08-03T09:49:24.299Z,0.90
2022-08-03T09:52:32.683Z,1.00
2022-08-03T09:54:40.691Z,0.90
2022-08-03T09:57:10.768Z,0.75
2022-08-03T09:59:41.084Z,1.10
2022-08-03T10:02:22.899Z,1.10
2022-08-03T10:07:21.763Z,0.85
2022-08-03T10:09:58.444Z,0.90
2022-08-03T10:12:48.774Z,0.75
2022-08-03T10:16:21.762Z,0.88
2022-08-03T10:18:05.248Z,0.90
2022-08-03T10:20:33.882Z,0.85
2022-08-03T10:23:02.548Z,0.77
2022-08-03T10:25:33.015Z,0.90
2022-08-03T10:28:04.324Z,0.85
2022-08-03T10:30:33.158Z,0.80
2022-08-03T10:33:06.018Z,0.90
2022-08-03T10:35:55.975Z,0.90
2022-08-03T10:38:30.921Z,0.98
2022-08-03T10:41:00.187Z,1.20
2022-08-03T10:43:37.198Z,1.13
2022-08-03T10:46:08.883Z,0.90
2022-08-03T10:48:37.863Z,0.90
2022-08-03T10:51:07.589Z,1.05
2022-08-03T10:53:36.878Z,0.90
2022-08-03T10:56:35.646Z,0.90
2022-08-03T10:59:12.606Z,0.80
2022-08-03T11:02:00.321Z,0.85
2022-08-03T11:04:30.611Z,0.82
2022-08-03T11:07:22.708Z,0.73
2022-08-03T11:09:52.345Z,0.80
2022-08-03T11:12:30.077Z,0.90
2022-08-03T11:15:03.154Z,0.80
2022-08-03T11:17:31.090Z,0.75
2022-08-03T11:19:58.937Z,0.70
2022-08-03T11:22:29.025Z,0.82
2022-08-03T11:25:03.126Z,0.85
2022-08-03T11:27:32.893Z,0.70
2022-08-03T11:30:06.496Z,0.70
2022-08-03T11:32:53.334Z,1.02
2022-08-03T11:35:23.520Z,0.70
2022-08-03T11:38:11.828Z,1.00
2022-08-03T11:40:42.005Z,0.70
2022-08-03T11:43:11.177Z,0.90
2022-08-03T11:45:40.234Z,0.70
2022-08-03T11:48:16.148Z,0.80
2022-08-03T11:50:45.358Z,0.80
2022-08-03T11:53:19.079Z,0.70
2022-08-03T11:55:49.685Z,0.82
2022-08-03T11:59:01.901Z,0.68
2022-08-03T12:01:12.496Z,0.60
2022-08-03T12:03:40.344Z,0.70
2022-08-03T12:06:11.037Z,0.70
2022-08-03T12:08:38.823Z,0.70
2022-08-03T12:11:09.297Z,0.80
2022-08-03T12:14:43.875Z,0.68
2022-08-03T12:16:29.553Z,0.52
2022-08-03T12:18:58.567Z,0.80
2022-08-03T12:21:26.519Z,0.70
2022-08-03T12:23:58.984Z,0.90
2022-08-03T12:26:27.393Z,0.88
2022-08-03T12:28:56.292Z,0.55
2022-08-03T12:31:24.831Z,0.70
2022-08-03T12:34:03.660Z,0.90
2022-08-03T12:36:33.548Z,0.70
2022-08-03T12:39:04.023Z,0.75
2022-08-03T12:41:35.204Z,0.80
2022-08-03T12:44:04.370Z,0.60
2022-08-03T12:46:34.581Z,0.70
2022-08-03T12:49:07.333Z,0.75
2022-08-03T12:51:37.610Z,0.65
2022-08-03T12:54:06.215Z,0.75
2022-08-03T12:56:34.042Z,0.70
2022-08-03T12:59:01.969Z,0.50
2022-08-03T13:01:37.997Z,0.73
2022-08-03T13:04:33.137Z,0.52
2022-08-03T13:07:03.421Z,0.70
2022-08-03T13:09:33.137Z,0.50
2022-08-03T13:12:09.304Z,0.60
2022-08-03T13:14:37.265Z,0.50
2022-08-03T13:17:06.288Z,0.75
2022-08-03T13:19:36.326Z,0.80
2022-08-03T13:22:12.933Z,0.70
2022-08-03T13:24:41.251Z,0.65
2022-08-03T13:28:04.864Z,0.60
2022-08-03T13:29:57.459Z,0.77
2022-08-03T13:32:25.518Z,0.70
2022-08-03T13:34:54.571Z,0.65
2022-08-03T13:37:22.662Z,0.50
2022-08-03T13:39:59.558Z,0.50
2022-08-03T13:42:28.852Z,0.65
2022-08-03T13:44:56.648Z,0.70
2022-08-03T13:47:24.400Z,0.73
2022-08-03T13:49:59.886Z,0.60
2022-08-03T13:52:30.220Z,0.73
2022-08-03T13:54:58.514Z,0.70
2022-08-03T13:58:04.544Z,0.80
2022-08-03T14:00:16.126Z,0.50
2022-08-03T14:03:02.916Z,0.88
2022-08-03T14:05:33.679Z,0.70
2022-08-03T14:08:05.723Z,0.77
2022-08-03T14:10:35.373Z,0.60
2022-08-03T14:13:03.328Z,0.80
2022-08-03T14:15:31.210Z,0.70
2022-08-03T14:17:59.157Z,0.70
2022-08-03T14:20:37.127Z,0.65
2022-08-03T14:23:16.492Z,0.80
2022-08-03T14:25:51.769Z,0.57
2022-08-03T14:28:22.590Z,0.70
2022-08-03T14:30:50.914Z,0.70
2022-08-03T14:33:19.118Z,0.63
2022-08-03T14:35:48.479Z,0.90
2022-08-03T14:38:18.504Z,0.60
2022-08-03T14:40:46.756Z,0.50
2022-08-03T14:43:14.921Z,0.75
2022-08-03T14:45:42.942Z,0.80
2022-08-03T14:50:30.725Z,0.75
2022-08-03T14:51:00.287Z,0.60
2022-08-03T14:53:30.134Z,0.82
2022-08-03T14:55:58.294Z,0.70
2022-08-03T14:58:26.768Z,0.68
2022-08-03T15:00:55.894Z,0.60
2022-08-03T15:03:25.148Z,0.65
2022-08-03T15:05:54.040Z,1.00
2022-08-03T15:08:22.088Z,1.10
2022-08-03T15:10:51.677Z,0.90
2022-08-03T15:13:20.354Z,0.90
2022-08-03T15:15:49.544Z,0.60
2022-08-03T15:18:17.476Z,0.70
2022-08-03T15:20:46.682Z,0.70
2022-08-03T15:23:16.326Z,0.75
2022-08-03T15:26:29.291Z,0.70
2022-08-03T15:28:33.914Z,0.65
2022-08-03T15:31:01.839Z,0.77
2022-08-03T15:33:29.869Z,0.60
2022-08-03T15:35:58.042Z,0.80
2022-08-03T15:38:26.487Z,0.70
2022-08-03T15:40:54.422Z,0.70
2022-08-03T15:43:22.653Z,0.55
2022-08-03T15:46:26.482Z,0.80
2022-08-03T15:48:39.870Z,0.70
2022-08-03T15:51:08.442Z,0.70
2022-08-03T15:53:36.324Z,0.75
2022-08-03T15:56:09.819Z,0.68
2022-08-03T15:59:04.665Z,0.70
2022-08-03T16:01:28.711Z,0.60
2022-08-03T16:03:56.512Z,0.75
2022-08-03T16:06:35.549Z,0.60
2022-08-03T16:09:05.436Z,0.80
2022-08-03T16:11:50.919Z,0.70
2022-08-03T16:14:34.359Z,0.90
2022-08-03T16:17:07.729Z,0.70
2022-08-03T16:19:35.693Z,0.75
2022-08-03T16:22:03.567Z,0.80
2022-08-03T16:24:31.944Z,0.57
2022-08-03T16:27:00.440Z,0.60
2022-08-03T16:29:28.652Z,0.65
2022-08-03T16:31:56.421Z,0.80
2022-08-03T16:34:25.476Z,0.60
2022-08-03T16:36:54.990Z,0.70
2022-08-03T16:39:22.964Z,0.75
2022-08-03T16:42:00.546Z,0.60
2022-08-03T16:44:31.110Z,0.60
2022-08-03T16:46:59.687Z,0.80
2022-08-03T16:49:54.468Z,0.73
2022-08-03T16:52:18.092Z,0.88
2022-08-03T16:54:52.607Z,0.77
2022-08-03T16:57:59.685Z,0.80
2022-08-03T17:00:11.991Z,0.70
2022-08-03T17:02:48.268Z,0.70
2022-08-03T17:05:18.844Z,0.90
2022-08-03T17:07:50.690Z,0.63
2022-08-03T17:10:27.069Z,0.80
2022-08-03T17:12:56.006Z,0.80
2022-08-03T17:15:38.150Z,0.70
2022-08-03T17:18:17.824Z,0.80
2022-08-03T17:20:52.260Z,0.70
2022-08-03T17:23:35.509Z,0.75
2022-08-03T17:26:09.774Z,0.70
2022-08-03T17:28:52.174Z,0.85
2022-08-03T17:31:31.366Z,0.60
2022-08-03T17:34:01.787Z,0.80
2022-08-03T17:37:02.767Z,0.93
2022-08-03T17:39:31.213Z,0.93
2022-08-03T17:42:30.094Z,0.77
2022-08-03T17:44:57.937Z,0.75
2022-08-03T17:47:29.269Z,0.80
2022-08-03T17:50:24.210Z,0.90
2022-08-03T17:53:07.106Z,1.10
2022-08-03T17:55:56.101Z,1.25
2022-08-03T17:58:43.846Z,1.42
2022-08-03T18:02:02.673Z,1.40
2022-08-03T18:04:30.351Z,1.17
2022-08-03T18:07:11.583Z,1.02
2022-08-03T18:10:06.706Z,0.88
2022-08-03T18:12:40.508Z,1.10
2022-08-03T18:15:13.344Z,1.10
2022-08-03T18:17:55.159Z,1.00
2022-08-03T18:20:42.711Z,1.00
2022-08-03T18:23:25.168Z,0.80
2022-08-03T18:26:06.771Z,1.08
2022-08-03T18:28:38.347Z,1.00
2022-08-03T18:31:07.456Z,0.98
2022-08-03T18:34:19.273Z,0.98
2022-08-03T18:36:30.139Z,1.20
2022-08-03T18:38:59.841Z,0.95
2022-08-03T18:41:32.147Z,1.05
2022-08-03T18:44:07.796Z,1.00
2022-08-03T18:46:48.862Z,0.90
2022-08-03T18:49:29.203Z,1.10
2022-08-03T18:52:26.973Z,0.95
2022-08-03T18:55:02.453Z,0.82
2022-08-03T18:57:42.614Z,1.00
2022-08-03T19:00:15.277Z,1.00
2022-08-03T19:02:50.026Z,1.25
2022-08-03T19:05:20.363Z,1.08
2022-08-03T19:07:58.146Z,0.90
2022-08-03T19:10:32.127Z,0.90
2022-08-03T19:13:05.235Z,1.08
2022-08-03T19:15:51.034Z,1.10
2022-08-03T19:18:21.928Z,1.42
2022-08-03T19:20:54.703Z,1.10
2022-08-03T19:23:25.324Z,1.33
2022-08-03T19:25:53.786Z,1.20
2022-08-03T19:28:30.108Z,1.10
2022-08-03T19:31:02.506Z,1.08
2022-08-03T19:33:57.560Z,1.17
2022-08-03T19:36:26.359Z,1.15
2022-08-03T19:38:55.743Z,0.95
2022-08-03T19:41:27.320Z,1.10
2022-08-03T19:44:04.444Z,1.00
2022-08-03T19:46:44.900Z,0.88
2022-08-03T19:49:16.375Z,1.20
2022-08-03T19:51:59.048Z,1.10
2022-08-03T19:54:39.680Z,1.20
2022-08-03T19:57:24.492Z,1.00
2022-08-03T19:59:54.452Z,1.23
2022-08-03T20:02:26.265Z,1.17
2022-08-03T20:04:56.418Z,1.27
2022-08-03T20:07:24.720Z,1.55
2022-08-03T20:09:56.094Z,1.30
2022-08-03T20:12:27.718Z,1.30
2022-08-03T20:14:59.084Z,1.10
2022-08-03T20:17:55.525Z,1.50
2022-08-03T20:20:21.080Z,1.10
2022-08-03T20:22:57.525Z,1.40
2022-08-03T20:25:37.971Z,1.23
2022-08-03T20:28:13.607Z,1.27
2022-08-03T20:30:47.455Z,1.38
2022-08-03T20:33:19.035Z,1.10
2022-08-03T20:35:48.954Z,1.30
2022-08-03T20:38:18.640Z,1.10
2022-08-03T20:40:47.200Z,1.10
2022-08-03T20:43:15.192Z,1.48
2022-08-03T20:46:01.173Z,1.40
2022-08-03T20:48:35.631Z,1.05
2022-08-03T20:51:05.787Z,1.45
2022-08-03T20:54:00.572Z,1.40
2022-08-03T20:56:33.663Z,1.42
2022-08-03T20:59:02.829Z,1.63
2022-08-03T21:01:36.218Z,1.77
2022-08-03T21:04:06.730Z,1.50
2022-08-03T21:06:39.424Z,1.45
2022-08-03T21:09:09.776Z,1.30
2022-08-03T21:11:44.079Z,1.20
2022-08-03T21:14:16.832Z,1.33
2022-08-03T21:16:46.761Z,1.17
2022-08-03T21:19:16.715Z,1.60
2022-08-03T21:21:45.579Z,1.30
2022-08-03T21:24:14.668Z,1.50
2022-08-03T21:26:43.571Z,1.20
2022-08-03T21:29:14.129Z,1.30
2022-08-03T21:31:42.127Z,1.30
2022-08-03T21:34:11.277Z,1.40
2022-08-03T21:36:39.115Z,1.10
2022-08-03T21:39:09.046Z,1.40
2022-08-03T21:41:38.781Z,1.50
2022-08-03T21:44:07.207Z,1.80
2022-08-03T21:46:37.385Z,1.48
2022-08-03T21:49:51.900Z,1.40
2022-08-03T21:51:59.410Z,1.70
2022-08-03T21:54:34.359Z,1.40
2022-08-03T21:57:05.367Z,1.20
2022-08-03T21:59:37.946Z,1.35
2022-08-03T22:02:11.397Z,1.25
2022-08-03T22:04:56.233Z,1.45
2022-08-03T22:07:28.225Z,1.50
2022-08-03T22:09:56.963Z,1.40
2022-08-03T22:12:29.706Z,1.48
2022-08-03T22:15:00.410Z,1.40
2022-08-03T22:17:53.672Z,1.40
2022-08-03T22:20:19.886Z,1.50
2022-08-03T22:22:55.789Z,1.73
2022-08-03T22:25:28.825Z,1.63
2022-08-03T22:27:57.395Z,1.35
2022-08-03T22:30:25.302Z,1.48
2022-08-03T22:32:56.110Z,1.40
2022-08-03T22:35:26.244Z,1.52
2022-08-03T22:37:58.190Z,1.70
2022-08-03T22:40:27.201Z,1.60
2022-08-03T22:42:55.756Z,1.60
2022-08-03T22:46:06.845Z,1.52
2022-08-03T22:48:12.351Z,1.40
2022-08-03T22:50:40.814Z,1.50
2022-08-03T22:53:10.420Z,1.40
2022-08-03T22:55:38.458Z,1.50
2022-08-03T22:58:06.224Z,1.35
2022-08-03T23:00:34.136Z,1.70
2022-08-03T23:03:07.191Z,1.45
2022-08-03T23:06:01.377Z,1.17
2022-08-03T23:08:27.663Z,1.63
2022-08-03T23:10:57.884Z,1.20
2022-08-03T23:13:28.141Z,1.38
2022-08-03T23:15:58.453Z,1.45
2022-08-03T23:18:32.067Z,1.70
2022-08-03T23:21:11.028Z,1.40
2022-08-03T23:23:44.405Z,1.20
2022-08-03T23:26:13.697Z,1.70
2022-08-03T23:28:46.096Z,1.50
2022-08-03T23:31:15.710Z,1.50
2022-08-03T23:33:45.965Z,1.50
2022-08-03T23:36:30.263Z,1.77
2022-08-03T23:39:03.763Z,1.30
2022-08-03T23:41:33.875Z,1.48
2022-08-03T23:44:04.123Z,1.48
2022-08-03T23:46:33.394Z,1.48
2022-08-03T23:49:01.523Z,1.70
2022-08-03T23:51:39.957Z,1.60
2022-08-03T23:54:18.929Z,2.00
2022-08-03T23:56:55.021Z,1.58
2022-08-03T23:59:29.790Z,1.70
